Portada
METAR-TAF:

METAR-TAF

Aeropuertos :

Hastings Municipal Airport

Hastings, Nebraska, Estados Unidos

latitud: 40-36-02N, longitud: 098-25-33W, altitud: 595 m

Observación

El informe se hizo hace 46 minutos, a las 05:53 UTC
Viento 13 kt del sur con ráfagas de 22 kt
Temperatura 27°C
Humedad 62%
Presión 1010 hPa
Visibilidad: 16.1 km
Cielo despejado

METAR: KHSI 070553Z AUTO 17013G22KT 10SM CLR 27/19 A2983 RMK AO2 SLP078 T02670194 10333 20267 403500228 51009

Hora: 01:39 (06:39 UTC)


TAF: falta

Observaciones y pronósticos meteorológicos de más de 4000 aeropuertos (mensajes METAR y TAF).

Los puntos amarillos y rojos representan las estaciones disponibles.

Ponga el ratón en el punto deseado para ver el nombre de la estación.

Haga clic para ver las observaciones y los pronósticos meteorológicos.

Para cambiar el mapa : haga clic en los botones verdes con una cruz de color negro para hacer un zoom, en el botón verde con un guión para alejar o en las flechas verdes para mapas adyacentes.


METAR-TAF: